createdAt,value
2018-07-12T00:03:41.472Z,16.50
2018-07-12T00:11:46.148Z,16.50
2018-07-12T00:15:48.374Z,16.50
2018-07-12T00:19:50.560Z,16.50
2018-07-12T00:23:52.757Z,16.50
2018-07-12T00:27:54.956Z,16.50
2018-07-12T00:31:57.144Z,16.60
2018-07-12T00:35:59.348Z,16.60
2018-07-12T00:40:01.553Z,16.60
2018-07-12T00:44:03.758Z,16.60
2018-07-12T00:48:05.957Z,16.60
2018-07-12T00:56:10.621Z,16.60
2018-07-12T01:00:12.809Z,16.60
2018-07-12T01:04:15.010Z,16.70
2018-07-12T01:08:17.204Z,16.80
2018-07-12T01:12:19.405Z,16.70
2018-07-12T01:16:21.622Z,16.70
2018-07-12T01:20:23.829Z,16.70
2018-07-12T01:24:26.031Z,16.80
2018-07-12T01:28:28.220Z,16.90
2018-07-12T01:32:30.415Z,16.80
2018-07-12T01:36:32.603Z,16.70
2018-07-12T01:40:34.800Z,16.60
2018-07-12T01:48:39.458Z,16.50
2018-07-12T01:56:44.128Z,16.50
2018-07-12T02:04:49.209Z,16.50
2018-07-12T02:12:53.862Z,16.60
2018-07-12T02:16:56.116Z,16.60
2018-07-12T02:20:58.237Z,16.60
2018-07-12T02:29:02.888Z,16.40
2018-07-12T02:33:05.093Z,16.20
2018-07-12T02:37:07.306Z,16.00
2018-07-12T02:41:09.505Z,16.00
2018-07-12T02:45:11.708Z,15.90
2018-07-12T02:53:16.604Z,15.60
2018-07-12T02:57:18.812Z,15.60
2018-07-12T03:01:21.013Z,15.50
2018-07-12T03:05:23.212Z,15.50
2018-07-12T03:09:25.409Z,15.40
2018-07-12T03:13:27.614Z,15.40
2018-07-12T03:17:29.814Z,15.20
2018-07-12T03:21:32.005Z,15.10
2018-07-12T03:25:34.202Z,15.10
2018-07-12T03:29:36.397Z,15.00
2018-07-12T03:33:39.085Z,14.90
2018-07-12T03:37:41.305Z,14.90
2018-07-12T03:41:43.503Z,14.90
2018-07-12T03:45:45.744Z,14.90
2018-07-12T03:53:50.404Z,14.80
2018-07-12T04:01:55.078Z,14.90
2018-07-12T04:05:57.289Z,15.00
2018-07-12T04:09:59.488Z,15.20
2018-07-12T04:14:01.672Z,15.40
2018-07-12T04:18:03.866Z,15.70
2018-07-12T04:22:06.050Z,15.70
2018-07-12T04:26:08.252Z,15.80
2018-07-12T04:34:12.890Z,15.50
2018-07-12T04:38:15.114Z,15.50
2018-07-12T04:42:17.309Z,15.60
2018-07-12T04:46:19.506Z,15.80
2018-07-12T04:50:21.710Z,15.90
2018-07-12T04:54:24.196Z,16.10
2018-07-12T04:58:26.402Z,16.20
2018-07-12T05:02:28.593Z,16.40
2018-07-12T05:10:33.457Z,16.50
2018-07-12T05:18:38.157Z,16.70
2018-07-12T05:22:41.792Z,16.90
2018-07-12T05:26:43.992Z,16.90
2018-07-12T05:30:46.254Z,16.80
2018-07-12T05:34:48.844Z,16.90
2018-07-12T05:38:52.064Z,17.00
2018-07-12T05:42:55.303Z,17.00
2018-07-12T05:46:58.544Z,17.10
2018-07-12T05:51:01.773Z,17.10
2018-07-12T05:55:05.005Z,17.20
2018-07-12T06:11:19.051Z,17.90
2018-07-12T06:19:25.233Z,17.60
2018-07-12T06:23:28.460Z,17.50
2018-07-12T06:27:31.711Z,17.90
2018-07-12T06:31:34.953Z,18.10
2018-07-12T06:35:38.171Z,18.60
2018-07-12T06:43:44.421Z,18.30
2018-07-12T06:47:47.632Z,18.40
2018-07-12T06:51:50.869Z,18.70
2018-07-12T06:55:54.555Z,19.20
2018-07-12T06:59:57.862Z,19.50
2018-07-12T07:04:01.086Z,19.80
2018-07-12T07:08:04.330Z,19.80
2018-07-12T07:12:07.742Z,19.20
2018-07-12T07:16:10.961Z,19.70
2018-07-12T07:20:14.238Z,19.80
2018-07-12T07:24:17.427Z,20.50
2018-07-12T07:32:23.651Z,20.20
2018-07-12T07:40:29.850Z,20.20
2018-07-12T07:44:33.065Z,20.50
2018-07-12T07:48:36.296Z,21.00
2018-07-12T07:52:39.530Z,21.60
2018-07-12T07:56:42.760Z,21.50
2018-07-12T08:00:45.994Z,21.40
2018-07-12T08:04:49.209Z,20.40
2018-07-12T08:08:52.455Z,20.20
2018-07-12T08:16:58.673Z,21.00
2018-07-12T08:21:02.045Z,21.10
2018-07-12T08:25:05.317Z,21.40
2018-07-12T08:29:08.550Z,21.30
2018-07-12T08:33:11.784Z,21.20
2018-07-12T08:41:17.990Z,21.30
2018-07-12T08:49:24.177Z,22.10
2018-07-12T08:57:30.368Z,21.90
2018-07-12T09:01:33.589Z,22.20
2018-07-12T09:09:39.769Z,22.20
2018-07-12T09:13:43.004Z,22.00
2018-07-12T09:17:46.276Z,21.40
2018-07-12T09:21:49.545Z,21.50
2018-07-12T09:25:52.717Z,21.80
2018-07-12T09:29:55.937Z,22.60
2018-07-12T09:33:59.158Z,23.50
2018-07-12T09:38:02.388Z,23.70
2018-07-12T09:42:05.621Z,23.10
2018-07-12T09:50:11.835Z,23.60
2018-07-12T09:54:15.058Z,24.20
2018-07-12T09:58:26.292Z,25.60
2018-07-12T10:02:34.860Z,25.40
2018-07-12T10:06:43.562Z,24.40
2018-07-12T10:11:52.158Z,25.50
2018-07-12T10:16:00.664Z,25.00
2018-07-12T10:24:07.924Z,23.30
2018-07-12T10:28:11.161Z,24.70
2018-07-12T10:32:14.402Z,24.00
2018-07-12T10:36:17.625Z,25.20
2018-07-12T10:40:20.839Z,25.50
2018-07-12T10:44:24.104Z,24.80
2018-07-12T10:48:27.309Z,24.20
2018-07-12T10:52:30.542Z,24.40
2018-07-12T10:56:33.920Z,27.60
2018-07-12T11:04:40.246Z,29.00
2018-07-12T11:08:43.384Z,28.10
2018-07-12T11:12:56.617Z,26.80
2018-07-12T11:21:02.823Z,27.00
2018-07-12T11:25:07.237Z,28.40
2018-07-12T11:29:10.469Z,29.00
2018-07-12T11:33:50.206Z,31.10
2018-07-12T11:37:53.454Z,30.00
2018-07-12T11:41:56.678Z,30.50
2018-07-12T11:46:01.375Z,30.70
2018-07-12T11:50:04.674Z,29.20
2018-07-12T11:54:07.929Z,28.70
2018-07-12T11:58:11.176Z,28.80
2018-07-12T12:02:14.394Z,30.40
2018-07-12T12:06:17.634Z,33.10
2018-07-12T12:10:20.874Z,33.50
2018-07-12T12:14:24.104Z,31.10
2018-07-12T12:18:27.353Z,28.60
2018-07-12T12:22:30.590Z,29.50
2018-07-12T12:26:33.845Z,30.60
2018-07-12T12:34:40.030Z,28.70
2018-07-12T12:38:43.261Z,30.20
2018-07-12T12:42:46.493Z,32.30
2018-07-12T12:46:49.727Z,33.70
2018-07-12T12:50:52.976Z,32.30
2018-07-12T12:54:56.189Z,28.80
2018-07-12T12:58:59.417Z,28.30
2018-07-12T13:03:02.629Z,27.00
2018-07-12T13:07:05.883Z,29.30
2018-07-12T13:11:09.114Z,31.20
2018-07-12T13:15:12.337Z,33.30
2018-07-12T13:19:15.565Z,30.90
2018-07-12T13:23:18.913Z,29.00
2018-07-12T13:27:22.148Z,28.70
2018-07-12T13:31:25.378Z,28.70
2018-07-12T13:35:28.637Z,28.00
2018-07-12T13:39:31.862Z,29.10
2018-07-12T13:43:35.093Z,29.60
2018-07-12T13:47:38.323Z,29.10
2018-07-12T13:51:41.549Z,27.90
2018-07-12T13:55:44.772Z,29.50
2018-07-12T13:59:48.002Z,29.40
2018-07-12T14:03:51.230Z,30.80
2018-07-12T14:07:54.462Z,31.40
2018-07-12T14:11:57.692Z,30.90
2018-07-12T14:16:00.916Z,28.40
2018-07-12T14:20:04.176Z,29.60
2018-07-12T14:24:07.432Z,29.90
2018-07-12T14:28:10.661Z,29.20
2018-07-12T14:32:13.888Z,28.30
2018-07-12T14:36:17.183Z,28.00
2018-07-12T14:44:23.389Z,30.90
2018-07-12T14:52:29.575Z,30.90
2018-07-12T14:56:32.794Z,31.00
2018-07-12T15:04:38.982Z,27.50
2018-07-12T15:08:42.257Z,27.70
2018-07-12T15:12:45.467Z,28.70
2018-07-12T15:16:48.709Z,30.10
2018-07-12T15:20:51.934Z,30.40
2018-07-12T15:24:55.153Z,29.80
2018-07-12T15:28:58.378Z,32.10
2018-07-12T15:33:01.598Z,29.90
2018-07-12T15:37:04.864Z,29.60
2018-07-12T15:41:08.477Z,30.30
2018-07-12T15:45:11.786Z,29.80
2018-07-12T15:49:15.005Z,30.00
2018-07-12T15:53:18.231Z,29.80
2018-07-12T15:57:21.464Z,30.70
2018-07-12T16:01:24.673Z,31.50
2018-07-12T16:05:27.973Z,32.00
2018-07-12T16:13:34.182Z,30.20
2018-07-12T16:17:37.386Z,28.40
2018-07-12T16:21:40.624Z,28.10
2018-07-12T16:25:43.848Z,29.20
2018-07-12T16:29:47.117Z,28.60
2018-07-12T16:33:50.317Z,29.40
2018-07-12T16:37:53.543Z,31.00
2018-07-12T16:41:56.843Z,30.60
2018-07-12T16:46:00.028Z,32.80
2018-07-12T16:50:03.261Z,31.40
2018-07-12T16:54:06.503Z,30.50
2018-07-12T17:02:12.719Z,30.20
2018-07-12T17:10:18.906Z,28.80
2018-07-12T17:14:22.219Z,28.90
2018-07-12T17:18:25.451Z,28.50
2018-07-12T17:22:28.668Z,28.20
2018-07-12T17:26:31.892Z,29.00
2018-07-12T17:30:35.144Z,29.20
2018-07-12T17:38:41.331Z,28.00
2018-07-12T17:42:44.546Z,28.40
2018-07-12T17:50:50.729Z,28.60
2018-07-12T17:54:53.961Z,28.10
2018-07-12T17:58:57.197Z,27.60
2018-07-12T18:03:00.410Z,28.40
2018-07-12T18:07:03.714Z,29.40
2018-07-12T18:11:06.941Z,30.80
2018-07-12T18:15:10.174Z,30.40
2018-07-12T18:19:13.395Z,30.10
2018-07-12T18:23:16.840Z,29.60
2018-07-12T18:27:20.064Z,30.00
2018-07-12T18:31:23.305Z,29.40
2018-07-12T18:35:26.535Z,28.40
2018-07-12T18:39:29.752Z,28.10
2018-07-12T18:43:33.105Z,27.40
2018-07-12T18:47:36.265Z,26.50
2018-07-12T18:51:39.552Z,25.90
2018-07-12T18:55:42.864Z,25.30
2018-07-12T19:03:48.997Z,24.50
2018-07-12T19:07:53.309Z,24.10
2018-07-12T19:11:56.533Z,24.00
2018-07-12T19:15:59.765Z,23.60
2018-07-12T19:20:03.014Z,23.40
2018-07-12T19:24:06.345Z,23.30
2018-07-12T19:28:09.581Z,23.10
2018-07-12T19:32:12.808Z,22.90
2018-07-12T19:36:16.073Z,22.80
2018-07-12T19:44:22.269Z,22.50
2018-07-12T19:48:25.498Z,22.40
2018-07-12T19:52:28.724Z,22.40
2018-07-12T19:56:31.977Z,22.30
2018-07-12T20:00:35.267Z,22.10
2018-07-12T20:04:38.513Z,22.20
2018-07-12T20:12:44.677Z,22.00
2018-07-12T20:16:47.922Z,21.90
2018-07-12T20:20:51.152Z,21.90
2018-07-12T20:24:54.425Z,21.90
2018-07-12T20:28:57.648Z,21.80
2018-07-12T20:33:00.866Z,21.80
2018-07-12T20:37:04.110Z,21.80
2018-07-12T20:41:07.509Z,21.80
2018-07-12T20:45:10.756Z,21.80
2018-07-12T20:49:13.999Z,21.70
2018-07-12T20:53:17.233Z,21.60
2018-07-12T20:57:20.463Z,21.50
2018-07-12T21:01:23.720Z,21.30
2018-07-12T21:05:26.961Z,21.20
2018-07-12T21:13:33.206Z,21.10
2018-07-12T21:17:36.422Z,21.10
2018-07-12T21:21:39.649Z,21.00
2018-07-12T21:25:42.870Z,20.90
2018-07-12T21:29:46.081Z,20.70
2018-07-12T21:37:52.256Z,20.40
2018-07-12T21:41:55.518Z,20.30
2018-07-12T21:45:58.801Z,20.20
2018-07-12T21:50:02.025Z,20.10
2018-07-12T21:54:05.305Z,20.00
2018-07-12T22:02:11.486Z,19.50
2018-07-12T22:06:15.996Z,19.40
2018-07-12T22:10:19.218Z,19.30
2018-07-12T22:14:22.455Z,19.10
2018-07-12T22:18:25.694Z,19.00
2018-07-12T22:22:28.917Z,19.00
2018-07-12T22:26:32.169Z,18.90
2018-07-12T22:30:36.443Z,18.90
2018-07-12T22:38:42.584Z,18.70
2018-07-12T22:46:48.774Z,18.60
2018-07-12T22:50:52.001Z,18.50
2018-07-12T22:58:58.181Z,18.10
2018-07-12T23:03:01.410Z,18.00
2018-07-12T23:11:07.670Z,17.70
2018-07-12T23:19:13.841Z,17.70
2018-07-12T23:23:17.944Z,17.60
2018-07-12T23:27:21.166Z,17.50
2018-07-12T23:31:24.390Z,17.40
2018-07-12T23:35:27.604Z,17.30
2018-07-12T23:39:30.841Z,17.40
2018-07-12T23:47:37.060Z,17.40
2018-07-12T23:51:40.302Z,17.30
2018-07-12T23:55:43.516Z,17.20
2018-07-12T23:59:46.738Z,17.20
